Patroon, Texas
Current Conditions -  °F | °C
As of 2:35 PM on Friday 28 Nov 2014 (Local Time) from KOCH Reporting Station
Clear Clear  
Wind Chill: 68°   Ceiling: Unl
Heat Index: 68°   Visibility: 10mi
Dew Point: 48°   Wind: 14mph
Humidity: 49%   Direction: 200°SSW
Pressure: 30.18"   Gusts: NA
Location:  31.7022°N, 93.9592°W
Report Text: KOCH 282035Z AUTO 20012KT 10SM CLR 20/09 A3018 RMK AO1
Loading
Personal Weather Stations






























Interactive Weather Map New forecast layout! Learn more

10-Day Weather Forecast

Advertisements
Track Severe Weather on mobile